createdAt,value
2022-11-29T00:00:03.862Z,4.64
2022-11-29T00:01:18.862Z,4.64
2022-11-29T00:02:20.834Z,4.63
2022-11-29T00:03:23.838Z,4.64
2022-11-29T00:04:25.746Z,4.65
2022-11-29T00:05:28.731Z,4.64
2022-11-29T00:06:33.375Z,4.65
2022-11-29T00:07:36.297Z,4.66
2022-11-29T00:08:38.572Z,4.65
2022-11-29T00:09:41.587Z,4.66
2022-11-29T00:10:44.781Z,4.65
2022-11-29T00:12:05.094Z,4.65
2022-11-29T00:13:07.991Z,4.65
2022-11-29T00:14:12.674Z,4.63
2022-11-29T00:15:15.786Z,4.65
2022-11-29T00:16:17.764Z,4.64
2022-11-29T00:17:20.715Z,4.65
2022-11-29T00:18:22.614Z,4.63
2022-11-29T00:19:25.651Z,4.64
2022-11-29T00:20:27.535Z,4.65
2022-11-29T00:21:30.384Z,4.64
2022-11-29T00:22:33.487Z,4.65
2022-11-29T00:23:35.885Z,4.65
2022-11-29T00:24:39.136Z,4.65
2022-11-29T00:25:40.974Z,4.65
2022-11-29T00:26:45.323Z,4.66
2022-11-29T00:27:47.221Z,4.66
2022-11-29T00:28:50.344Z,4.68
2022-11-29T00:29:53.315Z,4.67
2022-11-29T00:30:55.242Z,4.67
2022-11-29T00:31:58.116Z,4.68
2022-11-29T00:33:00.080Z,4.68
2022-11-29T00:34:06.862Z,4.68
2022-11-29T00:35:10.119Z,4.68
2022-11-29T00:36:12.959Z,4.68
2022-11-29T00:37:16.704Z,4.70
2022-11-29T00:38:18.635Z,4.70
2022-11-29T00:39:21.490Z,4.69
2022-11-29T00:40:23.359Z,4.70
2022-11-29T00:41:26.530Z,4.70
2022-11-29T00:42:29.794Z,4.69
2022-11-29T00:43:32.744Z,4.70
2022-11-29T00:44:34.643Z,4.70
2022-11-29T00:45:37.648Z,4.70
2022-11-29T00:46:39.618Z,4.69
2022-11-29T00:47:42.529Z,4.67
2022-11-29T00:48:44.476Z,4.69
2022-11-29T00:49:47.374Z,4.68
2022-11-29T00:50:49.275Z,4.68
2022-11-29T00:51:52.170Z,4.68
2022-11-29T00:52:54.143Z,4.68
2022-11-29T00:53:57.023Z,4.69
2022-11-29T00:54:58.913Z,4.69
2022-11-29T00:56:02.256Z,4.67
2022-11-29T00:57:04.349Z,4.68
2022-11-29T00:58:08.643Z,4.69
2022-11-29T00:59:10.472Z,4.68
2022-11-29T01:00:14.405Z,4.69
2022-11-29T01:01:16.602Z,4.68
2022-11-29T01:02:19.552Z,4.68
2022-11-29T01:03:21.578Z,4.69
2022-11-29T01:04:24.683Z,4.70
2022-11-29T01:05:26.601Z,4.71
2022-11-29T01:06:29.683Z,4.70
2022-11-29T01:07:31.616Z,4.71
2022-11-29T01:08:34.552Z,4.72
2022-11-29T01:09:36.493Z,4.71
2022-11-29T01:10:39.787Z,4.71
2022-11-29T01:11:41.672Z,4.72
2022-11-29T01:12:44.744Z,4.73
2022-11-29T01:13:49.074Z,4.73
2022-11-29T01:14:51.912Z,4.74
2022-11-29T01:15:55.964Z,4.74
2022-11-29T01:16:58.825Z,4.74
2022-11-29T01:18:00.808Z,4.74
2022-11-29T01:19:03.952Z,4.74
2022-11-29T01:20:08.021Z,4.74
2022-11-29T01:21:12.812Z,4.74
2022-11-29T01:22:14.691Z,4.75
2022-11-29T01:23:17.534Z,4.75
2022-11-29T01:24:22.185Z,4.74
2022-11-29T01:25:24.128Z,4.75
2022-11-29T01:26:29.583Z,4.75
2022-11-29T01:27:31.509Z,4.74
2022-11-29T01:28:35.337Z,4.75
2022-11-29T01:29:39.053Z,4.75
2022-11-29T01:30:41.929Z,4.75
2022-11-29T01:31:43.797Z,4.75
2022-11-29T01:32:46.686Z,4.75
2022-11-29T01:33:48.644Z,4.75
2022-11-29T01:34:51.468Z,4.76
2022-11-29T01:35:54.900Z,4.76
2022-11-29T01:36:57.884Z,4.77
2022-11-29T01:37:59.775Z,4.77
2022-11-29T01:39:03.927Z,4.76
2022-11-29T01:40:07.255Z,4.76
2022-11-29T01:41:13.759Z,4.77
2022-11-29T01:42:15.673Z,4.76
2022-11-29T01:43:19.386Z,4.76
2022-11-29T01:45:05.638Z,4.77
2022-11-29T01:46:07.524Z,4.77
2022-11-29T01:47:11.879Z,4.77
2022-11-29T01:48:14.580Z,4.78
2022-11-29T01:49:22.374Z,4.77
2022-11-29T01:50:24.615Z,4.78
2022-11-29T01:51:29.398Z,4.78
2022-11-29T01:52:32.944Z,4.77
2022-11-29T01:53:35.762Z,4.77
2022-11-29T01:54:42.168Z,4.79
2022-11-29T01:55:49.837Z,4.78
2022-11-29T01:56:53.070Z,4.78
2022-11-29T01:57:56.124Z,4.78
2022-11-29T01:58:58.185Z,4.79
2022-11-29T02:00:08.612Z,4.79
2022-11-29T02:01:16.372Z,4.78
2022-11-29T02:02:22.557Z,4.79
2022-11-29T02:03:25.847Z,4.79
2022-11-29T02:04:31.688Z,4.79
2022-11-29T02:05:34.661Z,4.79
2022-11-29T02:06:38.489Z,4.79
2022-11-29T02:07:44.192Z,4.79
2022-11-29T02:08:47.069Z,4.79
2022-11-29T02:09:49.048Z,4.79
2022-11-29T02:11:09.406Z,4.80
2022-11-29T02:12:21.331Z,4.79
2022-11-29T02:13:32.272Z,4.79
2022-11-29T02:14:48.900Z,4.80
2022-11-29T02:15:58.260Z,4.80
2022-11-29T02:17:08.430Z,4.81
2022-11-29T02:18:14.726Z,4.82
2022-11-29T02:19:38.292Z,4.83
2022-11-29T02:21:12.138Z,4.84
2022-11-29T02:22:21.054Z,4.83
2022-11-29T02:23:52.274Z,4.84
2022-11-29T02:25:09.331Z,4.84
2022-11-29T02:26:21.769Z,4.86
2022-11-29T02:28:05.906Z,4.84
2022-11-29T02:29:37.778Z,4.84
2022-11-29T02:31:00.296Z,4.84
2022-11-29T02:32:51.692Z,4.84
2022-11-29T02:34:17.836Z,4.85
2022-11-29T02:35:34.606Z,4.84
2022-11-29T02:36:51.421Z,4.86
2022-11-29T02:38:12.964Z,4.86
2022-11-29T02:39:43.794Z,4.86
2022-11-29T02:41:11.967Z,4.86
2022-11-29T02:43:00.238Z,4.87
2022-11-29T02:44:24.382Z,4.87
2022-11-29T02:45:38.528Z,4.87
2022-11-29T02:46:55.026Z,4.87
2022-11-29T02:48:12.468Z,4.86
2022-11-29T02:49:27.286Z,4.86
2022-11-29T02:50:41.124Z,4.86
2022-11-29T02:51:49.074Z,4.86
2022-11-29T02:53:00.807Z,4.86
2022-11-29T02:54:13.749Z,4.87
2022-11-29T02:55:21.955Z,4.87
2022-11-29T02:56:30.763Z,4.87
2022-11-29T02:57:41.293Z,4.86
2022-11-29T02:58:51.263Z,4.86
2022-11-29T03:00:02.352Z,4.86
2022-11-29T03:01:16.770Z,4.86
2022-11-29T03:02:26.658Z,4.87
2022-11-29T03:03:38.122Z,4.86
2022-11-29T03:04:47.665Z,4.87
2022-11-29T03:05:58.664Z,4.86
2022-11-29T03:07:11.044Z,4.87
2022-11-29T03:08:23.264Z,4.86
2022-11-29T03:09:36.045Z,4.86
2022-11-29T03:10:46.593Z,4.87
2022-11-29T03:11:56.726Z,4.87
2022-11-29T03:12:59.907Z,4.86
2022-11-29T03:14:15.437Z,4.86
2022-11-29T03:15:27.524Z,4.87
2022-11-29T03:16:43.028Z,4.86
2022-11-29T03:17:57.591Z,4.86
2022-11-29T03:19:07.301Z,4.87
2022-11-29T03:20:26.572Z,4.86
2022-11-29T03:21:42.505Z,4.87
2022-11-29T03:22:51.191Z,4.87
2022-11-29T03:23:58.318Z,4.88
2022-11-29T03:25:06.487Z,4.89
2022-11-29T03:26:14.895Z,4.87
2022-11-29T03:27:23.933Z,4.87
2022-11-29T03:28:32.046Z,4.87
2022-11-29T03:29:40.481Z,4.87
2022-11-29T03:30:49.947Z,4.88
2022-11-29T03:32:00.492Z,4.88
2022-11-29T03:33:10.745Z,4.87
2022-11-29T03:34:22.355Z,4.88
2022-11-29T03:35:34.090Z,4.88
2022-11-29T03:36:44.487Z,4.88
2022-11-29T03:37:53.128Z,4.87
2022-11-29T03:39:00.025Z,4.86
2022-11-29T03:40:06.201Z,4.86
2022-11-29T03:41:19.320Z,4.86
2022-11-29T03:42:26.519Z,4.87
2022-11-29T03:43:37.935Z,4.87
2022-11-29T03:44:44.703Z,4.88
2022-11-29T03:45:53.378Z,4.89
2022-11-29T03:47:01.880Z,4.89
2022-11-29T03:48:10.439Z,4.89
2022-11-29T03:49:19.589Z,4.89
2022-11-29T03:50:27.064Z,4.89
2022-11-29T03:51:41.387Z,4.89
2022-11-29T03:52:50.638Z,4.90
2022-11-29T03:53:57.382Z,4.89
2022-11-29T03:55:13.849Z,4.90
2022-11-29T03:56:30.953Z,4.91
2022-11-29T03:57:41.960Z,4.91
2022-11-29T03:58:53.194Z,4.90
2022-11-29T04:00:04.976Z,4.89
2022-11-29T04:01:34.127Z,4.89
2022-11-29T04:03:06.183Z,4.88
2022-11-29T04:05:00.242Z,4.89
2022-11-29T04:06:24.453Z,4.90
2022-11-29T04:08:01.501Z,4.89
2022-11-29T04:09:24.938Z,4.90
2022-11-29T04:10:44.914Z,4.89
2022-11-29T04:12:04.653Z,4.90
2022-11-29T04:13:54.821Z,4.91
2022-11-29T04:15:33.703Z,4.91
2022-11-29T04:17:20.329Z,4.91
2022-11-29T04:18:40.889Z,4.93
2022-11-29T04:20:10.526Z,4.91
2022-11-29T04:21:34.690Z,4.93
2022-11-29T04:23:07.236Z,4.92
2022-11-29T04:24:56.811Z,4.92
2022-11-29T04:26:40.151Z,4.91
2022-11-29T04:28:07.426Z,4.92
2022-11-29T04:29:22.247Z,4.93
2022-11-29T04:30:26.418Z,4.93
2022-11-29T04:31:38.286Z,4.93
2022-11-29T04:33:20.524Z,4.92
2022-11-29T04:34:51.070Z,4.93
2022-11-29T04:36:12.175Z,4.92
2022-11-29T04:37:24.371Z,4.92
2022-11-29T04:39:02.586Z,4.92
2022-11-29T04:40:32.006Z,4.93
2022-11-29T04:42:09.796Z,4.93
2022-11-29T04:43:30.934Z,4.92
2022-11-29T04:44:50.715Z,4.93
2022-11-29T04:46:40.877Z,4.93
2022-11-29T04:47:54.405Z,4.93
2022-11-29T04:49:11.030Z,4.94
2022-11-29T04:50:26.324Z,4.94
2022-11-29T04:51:48.672Z,4.94
2022-11-29T04:53:15.823Z,4.94
2022-11-29T04:54:27.681Z,4.93
2022-11-29T04:55:43.838Z,4.93
2022-11-29T04:56:49.924Z,4.94
2022-11-29T04:58:00.401Z,4.95
2022-11-29T04:59:07.784Z,4.94
2022-11-29T05:00:12.675Z,4.94
2022-11-29T05:01:23.369Z,4.95
2022-11-29T05:02:34.246Z,4.95
2022-11-29T05:03:40.408Z,4.95
2022-11-29T05:04:52.065Z,4.96
2022-11-29T05:06:02.800Z,4.96
2022-11-29T05:07:12.821Z,4.96
2022-11-29T05:08:26.603Z,4.97
2022-11-29T05:09:39.358Z,4.96
2022-11-29T05:10:52.525Z,4.97
2022-11-29T05:12:05.168Z,4.96
2022-11-29T05:13:18.751Z,4.96
2022-11-29T05:14:36.380Z,4.97
2022-11-29T05:16:03.162Z,4.97
2022-11-29T05:17:32.512Z,4.97
2022-11-29T05:18:57.623Z,4.97
2022-11-29T05:20:14.435Z,4.98
2022-11-29T05:21:24.955Z,4.97
2022-11-29T05:22:37.018Z,4.97
2022-11-29T05:23:51.066Z,4.98
2022-11-29T05:25:01.669Z,4.99
2022-11-29T05:26:11.770Z,4.98
2022-11-29T05:27:21.435Z,4.98
2022-11-29T05:28:29.288Z,4.97
2022-11-29T05:29:39.491Z,4.98
2022-11-29T05:31:06.596Z,4.99
2022-11-29T05:32:28.579Z,4.98
2022-11-29T05:33:47.935Z,4.98
2022-11-29T05:35:04.121Z,4.98
2022-11-29T05:36:20.612Z,4.98
2022-11-29T05:37:31.020Z,4.99
2022-11-29T05:38:52.225Z,5.00
2022-11-29T05:40:09.456Z,5.01
2022-11-29T05:41:32.891Z,5.01
2022-11-29T05:43:03.924Z,5.00
2022-11-29T05:44:12.625Z,5.00
2022-11-29T05:45:20.394Z,4.99
2022-11-29T05:46:30.015Z,5.01
2022-11-29T05:47:41.394Z,5.02
2022-11-29T05:48:50.715Z,5.02
2022-11-29T05:50:04.248Z,5.03
2022-11-29T05:51:20.020Z,5.04
2022-11-29T05:52:25.588Z,5.03
2022-11-29T05:53:34.198Z,5.05
2022-11-29T05:54:42.132Z,5.04
2022-11-29T05:55:53.110Z,5.05
2022-11-29T05:57:07.193Z,5.07
2022-11-29T05:58:14.853Z,5.06
2022-11-29T05:59:21.539Z,5.06
2022-11-29T06:00:24.503Z,5.07
2022-11-29T06:01:31.768Z,5.06
2022-11-29T06:02:49.397Z,5.06
2022-11-29T06:03:59.264Z,5.06
2022-11-29T06:05:09.724Z,5.06
2022-11-29T06:06:20.598Z,5.08
2022-11-29T06:07:28.987Z,5.09
2022-11-29T06:08:40.087Z,5.08
2022-11-29T06:09:48.215Z,5.09
2022-11-29T06:10:57.699Z,5.09
2022-11-29T06:12:06.721Z,5.09
2022-11-29T06:13:22.033Z,5.09
2022-11-29T06:14:53.252Z,5.10
2022-11-29T06:16:18.844Z,5.09
2022-11-29T06:17:42.979Z,5.09
2022-11-29T06:19:19.567Z,5.09
2022-11-29T06:20:49.930Z,5.10
2022-11-29T06:22:00.189Z,5.10
2022-11-29T06:23:23.228Z,5.10
2022-11-29T06:24:47.408Z,5.11
2022-11-29T06:26:07.266Z,5.11
2022-11-29T06:27:29.343Z,5.11
2022-11-29T06:28:51.088Z,5.11
2022-11-29T06:30:02.205Z,5.11
2022-11-29T06:31:16.455Z,5.11
2022-11-29T06:32:28.056Z,5.10
2022-11-29T06:33:39.531Z,5.10
2022-11-29T06:34:50.103Z,5.10
2022-11-29T06:36:10.692Z,5.11
2022-11-29T06:37:20.437Z,5.10
2022-11-29T06:38:27.437Z,5.11
2022-11-29T06:39:29.698Z,5.11
2022-11-29T06:40:33.257Z,5.11
2022-11-29T06:41:36.866Z,5.11
2022-11-29T06:42:41.078Z,5.12
2022-11-29T06:43:43.503Z,5.11
2022-11-29T06:44:47.347Z,5.12
2022-11-29T06:45:51.768Z,5.12
2022-11-29T06:47:04.189Z,5.12
2022-11-29T06:48:10.013Z,5.11
2022-11-29T06:49:15.784Z,5.11
2022-11-29T06:50:34.606Z,5.11
2022-11-29T06:51:49.207Z,5.11
2022-11-29T06:52:59.582Z,5.12
2022-11-29T06:54:17.878Z,5.11
2022-11-29T06:55:25.794Z,5.12
2022-11-29T06:56:40.773Z,5.13
2022-11-29T06:57:58.165Z,5.12
2022-11-29T06:59:08.822Z,5.13
2022-11-29T07:00:17.459Z,5.12
2022-11-29T07:01:28.160Z,5.12
2022-11-29T07:02:50.056Z,5.12
2022-11-29T07:04:10.131Z,5.12
2022-11-29T07:05:22.537Z,5.13
2022-11-29T07:06:27.311Z,5.12
2022-11-29T07:07:31.324Z,5.12
2022-11-29T07:08:33.738Z,5.12
2022-11-29T07:09:37.026Z,5.13
2022-11-29T07:10:41.678Z,5.14
2022-11-29T07:11:45.118Z,5.14
2022-11-29T07:12:52.009Z,5.37
2022-11-29T07:13:55.509Z,5.38
2022-11-29T07:14:58.803Z,5.38
2022-11-29T07:16:09.235Z,5.36
2022-11-29T07:17:22.275Z,5.34
2022-11-29T07:18:32.737Z,5.31
2022-11-29T07:19:43.968Z,5.28
2022-11-29T07:21:00.194Z,5.28
2022-11-29T07:22:09.387Z,5.25
2022-11-29T07:23:22.099Z,5.24
2022-11-29T07:24:43.278Z,5.23
2022-11-29T07:25:57.334Z,5.21
2022-11-29T07:27:04.948Z,5.20
2022-11-29T07:28:20.961Z,5.20
2022-11-29T07:29:33.653Z,5.18
2022-11-29T07:30:45.042Z,5.19
2022-11-29T07:32:00.816Z,5.18
2022-11-29T07:33:14.578Z,5.17
2022-11-29T07:34:28.734Z,5.17
2022-11-29T07:35:39.995Z,5.16
2022-11-29T07:36:54.927Z,5.16
2022-11-29T07:38:09.923Z,5.16
2022-11-29T07:39:23.821Z,5.16
2022-11-29T07:40:37.545Z,5.16
2022-11-29T07:41:47.758Z,5.16
2022-11-29T07:43:05.904Z,5.16
2022-11-29T07:44:17.842Z,5.17
2022-11-29T07:45:26.947Z,5.16
2022-11-29T07:46:29.222Z,5.17
2022-11-29T07:47:35.791Z,5.17
2022-11-29T07:48:39.109Z,5.16
2022-11-29T07:49:42.232Z,5.16
2022-11-29T07:50:45.995Z,5.17
2022-11-29T07:51:49.199Z,5.15
2022-11-29T07:52:51.185Z,5.17
2022-11-29T07:53:54.103Z,5.16
2022-11-29T07:54:56.282Z,5.16
2022-11-29T07:55:59.262Z,5.16
2022-11-29T07:57:01.188Z,5.17
2022-11-29T07:58:04.183Z,5.17
2022-11-29T07:59:10.963Z,5.17
2022-11-29T08:00:17.070Z,5.16
2022-11-29T08:01:18.934Z,5.16
2022-11-29T08:02:28.558Z,5.17
2022-11-29T08:03:32.954Z,5.17
2022-11-29T08:04:35.021Z,5.18
2022-11-29T08:05:39.211Z,5.18
2022-11-29T08:06:41.136Z,5.16
2022-11-29T08:07:44.305Z,5.18
2022-11-29T08:08:47.355Z,5.17
2022-11-29T08:09:49.354Z,5.17
2022-11-29T08:10:52.191Z,5.17
2022-11-29T08:11:55.067Z,5.18
2022-11-29T08:12:56.997Z,5.18
2022-11-29T08:14:01.033Z,5.17
2022-11-29T08:15:03.361Z,5.17
2022-11-29T08:16:08.654Z,5.17
2022-11-29T08:17:11.548Z,5.17
2022-11-29T08:18:14.910Z,5.17
2022-11-29T08:19:17.847Z,5.16
2022-11-29T08:20:21.035Z,5.16
2022-11-29T08:21:23.995Z,5.16
2022-11-29T08:22:26.924Z,5.18
2022-11-29T08:23:29.504Z,5.18
2022-11-29T08:24:32.420Z,5.18
2022-11-29T08:25:34.529Z,5.18
2022-11-29T08:26:37.651Z,5.18
2022-11-29T08:27:39.636Z,5.18
2022-11-29T08:28:42.514Z,5.18
2022-11-29T08:29:45.374Z,5.19
2022-11-29T08:30:48.252Z,5.19
2022-11-29T08:31:53.630Z,5.19
2022-11-29T08:32:55.740Z,5.19
2022-11-29T08:33:58.700Z,5.19
2022-11-29T08:35:00.921Z,5.18
2022-11-29T08:36:08.225Z,5.18
2022-11-29T08:37:10.157Z,5.19
2022-11-29T08:38:13.018Z,5.19
2022-11-29T08:39:15.016Z,5.20
2022-11-29T08:40:18.488Z,5.20
2022-11-29T08:41:21.377Z,5.20
2022-11-29T08:42:23.297Z,5.20
2022-11-29T08:43:26.209Z,5.20
2022-11-29T08:44:29.186Z,5.21
2022-11-29T08:45:31.174Z,5.20
2022-11-29T08:46:48.170Z,5.20
2022-11-29T08:47:52.420Z,5.20
2022-11-29T08:48:54.311Z,5.20
2022-11-29T08:50:06.090Z,5.19
2022-11-29T08:51:09.006Z,5.18
2022-11-29T08:52:31.228Z,5.18
2022-11-29T08:53:42.050Z,5.20
2022-11-29T08:54:45.560Z,5.20
2022-11-29T08:55:48.630Z,5.20
2022-11-29T08:58:16.420Z,5.19
2022-11-29T08:59:19.283Z,5.20
2022-11-29T09:00:22.477Z,5.20
2022-11-29T09:01:25.365Z,5.20
2022-11-29T09:02:27.450Z,5.20
2022-11-29T09:03:50.685Z,5.21
2022-11-29T09:04:53.622Z,5.22
2022-11-29T09:05:57.504Z,5.22
2022-11-29T09:07:00.328Z,5.22
2022-11-29T09:08:02.372Z,5.21
2022-11-29T09:09:05.470Z,5.20
2022-11-29T09:10:09.540Z,5.22
2022-11-29T09:11:16.320Z,5.21
2022-11-29T09:12:18.199Z,5.22
2022-11-29T09:13:21.020Z,5.22
2022-11-29T09:14:23.002Z,5.23
2022-11-29T09:15:25.891Z,5.23
2022-11-29T09:16:31.034Z,5.23
2022-11-29T09:17:33.289Z,5.24
2022-11-29T09:18:38.778Z,5.24
2022-11-29T09:19:41.871Z,5.24
2022-11-29T09:20:45.426Z,5.25
2022-11-29T09:21:48.531Z,5.24
2022-11-29T09:22:51.383Z,5.26
2022-11-29T09:23:58.760Z,5.25
2022-11-29T09:25:01.778Z,5.26
2022-11-29T09:26:03.962Z,5.24
2022-11-29T09:27:07.326Z,5.26
2022-11-29T09:28:11.426Z,5.23
2022-11-29T09:29:14.256Z,5.22
2022-11-29T09:30:22.111Z,5.23
2022-11-29T09:31:27.482Z,5.23
2022-11-29T09:32:31.452Z,5.24
2022-11-29T09:33:33.590Z,5.24
2022-11-29T09:34:37.832Z,5.25
2022-11-29T09:35:40.772Z,5.25
2022-11-29T09:36:44.168Z,5.25
2022-11-29T09:37:46.095Z,5.25
2022-11-29T09:38:49.000Z,5.25
2022-11-29T09:39:51.821Z,5.23
2022-11-29T09:40:55.497Z,5.26
2022-11-29T09:42:09.735Z,5.25
2022-11-29T09:43:24.819Z,5.25
2022-11-29T09:44:37.954Z,5.25
2022-11-29T09:45:46.552Z,5.26
2022-11-29T09:46:58.978Z,5.27
2022-11-29T09:48:26.579Z,5.25
2022-11-29T09:50:04.691Z,5.26
2022-11-29T09:51:18.786Z,5.26
2022-11-29T09:52:32.889Z,5.28
2022-11-29T09:53:50.041Z,5.28
2022-11-29T09:55:00.712Z,5.29
2022-11-29T09:56:17.586Z,5.29
2022-11-29T09:57:23.899Z,5.29
2022-11-29T09:58:32.924Z,5.29
2022-11-29T09:59:41.024Z,5.29
2022-11-29T10:00:47.468Z,5.29
2022-11-29T10:01:55.595Z,5.28
2022-11-29T10:03:03.021Z,5.28
2022-11-29T10:04:12.525Z,5.28
2022-11-29T10:05:22.189Z,5.28
2022-11-29T10:06:26.914Z,5.27
2022-11-29T10:07:36.966Z,5.27
2022-11-29T10:08:43.928Z,5.28
2022-11-29T10:09:51.434Z,5.28
2022-11-29T10:10:57.580Z,5.29
2022-11-29T10:12:13.475Z,5.30
2022-11-29T10:13:21.403Z,5.31
2022-11-29T10:14:29.234Z,5.31
2022-11-29T10:15:38.535Z,5.32
2022-11-29T10:16:48.039Z,5.34
2022-11-29T10:17:56.107Z,5.33
2022-11-29T10:19:05.842Z,5.32
2022-11-29T10:20:16.018Z,5.33
2022-11-29T10:21:25.151Z,5.33
2022-11-29T10:22:39.329Z,5.33
2022-11-29T10:23:45.192Z,5.34
2022-11-29T10:24:52.747Z,5.33
2022-11-29T10:25:58.202Z,5.33
2022-11-29T10:27:01.346Z,5.32
2022-11-29T10:28:05.964Z,5.32
2022-11-29T10:29:13.969Z,5.33
2022-11-29T10:30:17.709Z,5.34
2022-11-29T10:31:27.203Z,5.34
2022-11-29T10:32:32.438Z,5.34
2022-11-29T10:33:40.809Z,5.33
2022-11-29T10:34:44.430Z,5.33
2022-11-29T10:35:49.411Z,5.34
2022-11-29T10:36:58.801Z,5.32
2022-11-29T10:39:30.955Z,5.31
2022-11-29T10:40:39.147Z,5.31
2022-11-29T10:41:41.993Z,5.34
2022-11-29T10:42:50.001Z,5.33
2022-11-29T10:43:55.601Z,5.34
2022-11-29T10:44:59.381Z,5.34
2022-11-29T10:46:02.592Z,5.35
2022-11-29T10:47:10.810Z,5.33
2022-11-29T10:48:17.237Z,5.33
2022-11-29T10:49:23.337Z,5.32
2022-11-29T10:50:27.687Z,5.33
2022-11-29T10:51:31.504Z,5.34
2022-11-29T10:52:35.801Z,5.35
2022-11-29T10:53:38.838Z,5.35
2022-11-29T10:54:45.056Z,5.36
2022-11-29T10:55:50.379Z,5.37
2022-11-29T10:56:53.366Z,5.38
2022-11-29T10:58:12.148Z,5.36
2022-11-29T10:59:22.857Z,5.37
2022-11-29T11:00:24.868Z,5.38
2022-11-29T11:01:29.130Z,5.40
2022-11-29T11:02:32.296Z,5.40
2022-11-29T11:03:38.559Z,5.40
2022-11-29T11:04:46.653Z,5.42
2022-11-29T11:06:09.676Z,5.42
2022-11-29T11:07:23.762Z,5.43
2022-11-29T11:08:29.708Z,5.43
2022-11-29T11:09:36.298Z,5.42
2022-11-29T11:10:38.452Z,5.41
2022-11-29T11:11:44.182Z,5.42
2022-11-29T11:13:01.991Z,5.41
2022-11-29T11:14:08.064Z,5.41
2022-11-29T11:15:16.655Z,5.39
2022-11-29T11:16:21.432Z,5.39
2022-11-29T11:17:26.999Z,5.40
2022-11-29T11:18:30.821Z,5.39
2022-11-29T11:19:35.520Z,5.39
2022-11-29T11:20:42.199Z,5.38
2022-11-29T11:21:45.216Z,5.38
2022-11-29T11:22:58.642Z,5.38
2022-11-29T11:24:04.069Z,5.38
2022-11-29T11:25:24.990Z,5.39
2022-11-29T11:26:44.019Z,5.41
2022-11-29T11:27:46.610Z,5.42
2022-11-29T11:28:53.761Z,5.43
2022-11-29T11:29:56.802Z,5.43
2022-11-29T11:31:01.892Z,5.46
2022-11-29T11:32:08.646Z,5.45
2022-11-29T11:33:19.468Z,5.43
2022-11-29T11:34:34.208Z,5.42
2022-11-29T11:35:37.367Z,5.43
2022-11-29T11:36:40.239Z,5.43
2022-11-29T11:37:42.056Z,5.44
2022-11-29T11:38:52.448Z,5.45
2022-11-29T11:39:58.199Z,5.43
2022-11-29T11:41:06.813Z,5.42
2022-11-29T11:42:30.748Z,5.42
2022-11-29T11:43:35.015Z,5.42
2022-11-29T11:44:48.768Z,5.42
2022-11-29T11:45:54.994Z,5.42
2022-11-29T11:46:58.170Z,5.42
2022-11-29T11:48:03.763Z,5.41
2022-11-29T11:49:13.652Z,5.42
2022-11-29T11:50:18.047Z,5.44
2022-11-29T11:51:25.526Z,5.40
2022-11-29T11:52:32.215Z,5.38
2022-11-29T11:53:39.271Z,5.38
2022-11-29T11:54:47.491Z,5.40
2022-11-29T11:56:00.932Z,5.41
2022-11-29T11:57:04.592Z,5.43
2022-11-29T11:58:17.724Z,5.43
2022-11-29T11:59:24.531Z,5.42
2022-11-29T12:02:25.790Z,5.43
2022-11-29T12:03:39.258Z,5.43
2022-11-29T12:04:42.443Z,5.43
2022-11-29T12:05:46.840Z,5.42
2022-11-29T12:06:52.596Z,5.42
2022-11-29T12:08:07.681Z,5.41
2022-11-29T12:09:19.402Z,5.43
2022-11-29T12:10:28.145Z,5.42
2022-11-29T12:11:42.332Z,5.45
2022-11-29T12:12:48.272Z,5.45
2022-11-29T12:13:56.936Z,5.45
2022-11-29T12:15:02.953Z,5.46
2022-11-29T12:16:11.055Z,5.47
2022-11-29T12:17:23.339Z,5.47
2022-11-29T12:18:37.914Z,5.47
2022-11-29T12:19:50.670Z,5.47
2022-11-29T12:20:56.948Z,5.46
2022-11-29T12:22:04.048Z,5.46
2022-11-29T12:23:22.822Z,5.45
2022-11-29T12:24:31.907Z,5.44
2022-11-29T12:25:41.936Z,5.44
2022-11-29T12:26:56.856Z,5.45
2022-11-29T12:28:01.050Z,5.46
2022-11-29T12:29:03.182Z,5.47
2022-11-29T12:30:13.372Z,5.49
2022-11-29T12:31:30.168Z,5.48
2022-11-29T12:33:03.992Z,5.50
2022-11-29T12:34:23.041Z,5.50
2022-11-29T12:35:58.875Z,5.51
2022-11-29T12:37:11.099Z,5.51
2022-11-29T12:38:30.106Z,5.50
2022-11-29T12:39:46.691Z,5.51
2022-11-29T12:40:56.654Z,5.51
2022-11-29T12:42:10.674Z,5.51
2022-11-29T12:43:22.643Z,5.52
2022-11-29T12:44:40.449Z,5.52
2022-11-29T12:45:50.453Z,5.53
2022-11-29T12:47:34.178Z,5.54
2022-11-29T12:48:37.133Z,5.55
2022-11-29T12:49:52.268Z,5.55
2022-11-29T12:51:05.528Z,5.56
2022-11-29T12:52:16.156Z,5.56
2022-11-29T12:53:28.537Z,5.55
2022-11-29T12:54:50.030Z,5.56
2022-11-29T12:56:06.399Z,5.56
2022-11-29T12:57:19.331Z,5.58
2022-11-29T12:58:31.726Z,5.58
2022-11-29T12:59:51.249Z,5.59
2022-11-29T13:01:03.713Z,5.59
2022-11-29T13:02:21.908Z,5.59
2022-11-29T13:03:31.525Z,5.60
2022-11-29T13:04:45.696Z,5.60
2022-11-29T13:06:02.301Z,5.60
2022-11-29T13:07:19.636Z,5.59
2022-11-29T13:08:44.508Z,5.58
2022-11-29T13:09:59.576Z,5.57
2022-11-29T13:11:14.087Z,5.58
2022-11-29T13:12:24.913Z,5.58
2022-11-29T13:13:38.263Z,5.58
2022-11-29T13:14:49.140Z,5.58
2022-11-29T13:16:02.284Z,5.58
2022-11-29T13:17:17.037Z,5.59
2022-11-29T13:18:26.920Z,5.60
2022-11-29T13:19:40.131Z,5.60
2022-11-29T13:20:48.338Z,5.59
2022-11-29T13:22:01.891Z,5.58
2022-11-29T13:23:15.793Z,5.58
2022-11-29T13:24:26.669Z,5.55
2022-11-29T13:25:33.554Z,5.54
2022-11-29T13:26:37.935Z,5.54
2022-11-29T13:27:55.489Z,5.54
2022-11-29T13:28:59.550Z,5.52
2022-11-29T13:30:02.538Z,5.51
2022-11-29T13:31:08.613Z,5.49
2022-11-29T13:32:32.254Z,5.48
2022-11-29T13:33:48.422Z,5.48
2022-11-29T13:34:53.335Z,5.50
2022-11-29T13:36:02.425Z,5.51
2022-11-29T13:37:14.095Z,5.50
2022-11-29T13:38:23.790Z,5.51
2022-11-29T13:39:39.839Z,5.53
2022-11-29T13:40:53.188Z,5.54
2022-11-29T13:42:04.682Z,5.55
2022-11-29T13:43:19.911Z,5.54
2022-11-29T13:44:33.218Z,5.55
2022-11-29T13:45:43.696Z,5.56
2022-11-29T13:46:53.134Z,5.56
2022-11-29T13:47:59.234Z,5.56
2022-11-29T13:49:02.082Z,5.55
2022-11-29T13:50:06.017Z,5.55
2022-11-29T13:51:30.952Z,5.56
2022-11-29T13:52:40.777Z,5.56
2022-11-29T13:53:48.804Z,5.57
2022-11-29T13:55:08.740Z,5.56
2022-11-29T13:56:27.055Z,5.55
2022-11-29T13:57:38.922Z,5.57
2022-11-29T13:58:55.293Z,5.57
2022-11-29T13:59:58.196Z,5.58
2022-11-29T14:01:02.625Z,5.57
2022-11-29T14:02:23.488Z,5.57
2022-11-29T14:03:36.130Z,5.57
2022-11-29T14:04:46.011Z,5.58
2022-11-29T14:05:50.112Z,5.58
2022-11-29T14:07:04.048Z,5.59
2022-11-29T14:08:26.031Z,5.61
2022-11-29T14:09:34.155Z,5.61
2022-11-29T14:10:38.795Z,5.61
2022-11-29T14:11:50.123Z,5.62
2022-11-29T14:12:57.664Z,5.61
2022-11-29T14:14:05.065Z,5.62
2022-11-29T14:15:24.909Z,5.62
2022-11-29T14:16:33.337Z,5.61
2022-11-29T14:17:48.798Z,5.61
2022-11-29T14:19:20.686Z,5.60
2022-11-29T14:20:45.744Z,5.59
2022-11-29T14:22:19.520Z,5.61
2022-11-29T14:23:38.003Z,5.58
2022-11-29T14:24:41.303Z,5.56
2022-11-29T14:26:28.037Z,5.56
2022-11-29T14:28:05.901Z,5.57
2022-11-29T14:29:53.829Z,5.56
2022-11-29T14:31:01.322Z,5.55
2022-11-29T14:32:04.853Z,5.55
2022-11-29T14:33:20.937Z,5.56
2022-11-29T14:34:38.950Z,5.57
2022-11-29T14:35:48.228Z,5.57
2022-11-29T14:36:57.932Z,5.58
2022-11-29T14:38:10.399Z,5.57
2022-11-29T14:39:28.829Z,5.56
2022-11-29T14:40:43.701Z,5.57
2022-11-29T14:41:55.749Z,5.57
2022-11-29T14:42:59.260Z,5.58
2022-11-29T14:44:06.586Z,5.59
2022-11-29T14:45:26.568Z,5.60
2022-11-29T14:46:33.776Z,5.60
2022-11-29T14:47:39.013Z,5.60
2022-11-29T14:48:44.578Z,5.60
2022-11-29T14:49:48.103Z,5.60
2022-11-29T14:51:06.340Z,5.59
2022-11-29T14:52:18.580Z,5.61
2022-11-29T14:53:31.243Z,5.62
2022-11-29T14:54:33.860Z,5.61
2022-11-29T14:55:38.269Z,5.62
2022-11-29T14:56:44.639Z,5.62
2022-11-29T14:58:19.135Z,5.62
2022-11-29T14:59:47.762Z,5.62
2022-11-29T15:01:09.663Z,5.60
2022-11-29T15:02:26.885Z,5.59
2022-11-29T15:03:34.883Z,5.59
2022-11-29T15:04:40.244Z,5.59
2022-11-29T15:05:45.221Z,5.56
2022-11-29T15:06:53.011Z,5.56
2022-11-29T15:08:07.821Z,5.54
2022-11-29T15:09:20.347Z,5.54
2022-11-29T15:10:27.223Z,5.52
2022-11-29T15:11:44.273Z,5.52
2022-11-29T15:12:48.433Z,5.52
2022-11-29T15:13:55.683Z,5.51
2022-11-29T15:15:17.063Z,5.50
2022-11-29T15:16:50.787Z,5.50
2022-11-29T15:18:01.725Z,5.51
2022-11-29T15:19:52.171Z,5.54
2022-11-29T15:21:08.488Z,5.55
2022-11-29T15:22:15.942Z,5.55
2022-11-29T15:23:20.140Z,5.55
2022-11-29T15:24:28.044Z,5.56
2022-11-29T15:25:33.070Z,5.56
2022-11-29T15:26:35.001Z,5.56
2022-11-29T15:27:40.259Z,5.55
2022-11-29T15:28:43.549Z,5.55
2022-11-29T15:29:48.168Z,5.56
2022-11-29T15:31:01.301Z,5.54
2022-11-29T15:32:05.750Z,5.53
2022-11-29T15:33:21.202Z,5.53
2022-11-29T15:34:33.273Z,5.54
2022-11-29T15:35:37.339Z,5.56
2022-11-29T15:36:44.250Z,5.55
2022-11-29T15:37:49.719Z,5.55
2022-11-29T15:38:54.998Z,5.55
2022-11-29T15:40:06.629Z,5.55
2022-11-29T15:41:19.918Z,5.54
2022-11-29T15:42:22.168Z,5.54